Terminal Aerodrome Forecast
Issued by NWS Cleveland, OH

Home | Current Version | Previous Version | Text Only | Print | Product List | Glossary On
Versions: 1 2 3 4 5 6 7 8 9 10 11 12 13 14 15 16 17 18 19
000
FTUS41 KCLE 190500 CCA
TAFYNG
TAF COR
KYNG 190542Z 1906/2006 04010KT P6SM BKN200
     FM191400 11015G25KT P6SM SCT060 OVC150
     FM192100 12015G25KT 5SM -SHRA SCT025 OVC060
     FM192300 14015G28KT 3SM -SHRA SCT010 OVC025
     FM200400 16015G25KT 6SM -SHRA OVC010=

USA.gov is the U.S. government's official web portal to all federal, state and local government web resources and services.